createdAt,value
2023-05-21T00:00:42.783Z,5.30
2023-05-21T00:03:31.207Z,5.00
2023-05-21T00:06:01.775Z,5.50
2023-05-21T00:08:30.721Z,5.30
2023-05-21T00:10:59.005Z,5.50
2023-05-21T00:13:27.238Z,5.80
2023-05-21T00:15:55.696Z,5.80
2023-05-21T00:18:25.591Z,5.80
2023-05-21T00:20:54.873Z,5.20
2023-05-21T00:23:23.430Z,5.20
2023-05-21T00:25:53.468Z,6.60
2023-05-21T00:28:22.292Z,5.90
2023-05-21T00:30:51.414Z,5.90
2023-05-21T00:33:22.246Z,5.90
2023-05-21T00:35:50.622Z,5.90
2023-05-21T00:38:19.326Z,6.50
2023-05-21T00:40:48.007Z,6.00
2023-05-21T00:43:16.692Z,5.60
2023-05-21T00:45:46.817Z,5.80
2023-05-21T00:48:16.124Z,6.50
2023-05-21T00:50:45.146Z,6.80
2023-05-21T00:53:15.500Z,6.60
2023-05-21T00:55:44.275Z,6.90
2023-05-21T00:58:13.062Z,6.50
2023-05-21T01:00:41.964Z,7.20
2023-05-21T01:03:11.269Z,7.00
2023-05-21T01:05:39.729Z,8.70
2023-05-21T01:08:10.507Z,7.00
2023-05-21T01:10:38.947Z,7.80
2023-05-21T01:13:07.641Z,7.00
2023-05-21T01:15:38.158Z,7.00
2023-05-21T01:18:07.862Z,6.60
2023-05-21T01:20:37.761Z,7.10
2023-05-21T01:23:06.838Z,6.80
2023-05-21T01:25:35.946Z,6.60
2023-05-21T01:28:04.971Z,6.40
2023-05-21T01:30:34.111Z,6.50
2023-05-21T01:33:15.684Z,6.60
2023-05-21T01:35:54.459Z,6.00
2023-05-21T01:38:42.841Z,6.80
2023-05-21T01:41:12.886Z,6.90
2023-05-21T01:43:44.543Z,6.70
2023-05-21T01:46:18.052Z,6.70
2023-05-21T01:48:48.780Z,5.80
2023-05-21T01:51:17.273Z,7.00
2023-05-21T01:53:45.658Z,6.60
2023-05-21T01:56:16.171Z,6.20
2023-05-21T01:58:44.777Z,6.50
2023-05-21T02:01:13.266Z,5.90
2023-05-21T02:03:41.680Z,5.70
2023-05-21T02:06:10.349Z,6.30
2023-05-21T02:08:38.834Z,6.00
2023-05-21T02:11:07.238Z,5.80
2023-05-21T02:13:42.714Z,5.20
2023-05-21T02:16:14.769Z,5.20
2023-05-21T02:18:43.802Z,5.10
2023-05-21T02:21:12.840Z,5.10
2023-05-21T02:23:42.779Z,5.00
2023-05-21T02:26:11.341Z,4.90
2023-05-21T02:28:40.757Z,4.80
2023-05-21T02:31:09.444Z,5.00
2023-05-21T02:33:41.007Z,4.80
2023-05-21T02:36:13.384Z,4.90
2023-05-21T02:38:45.572Z,5.90
2023-05-21T02:41:14.064Z,4.30
2023-05-21T02:43:42.453Z,4.70
2023-05-21T02:46:11.647Z,4.80
2023-05-21T02:48:40.405Z,5.60
2023-05-21T02:51:09.205Z,5.30
2023-05-21T02:53:37.609Z,7.50
2023-05-21T02:56:06.379Z,5.20
2023-05-21T02:58:34.761Z,5.40
2023-05-21T03:01:03.166Z,5.60
2023-05-21T03:03:32.634Z,5.80
2023-05-21T03:06:01.048Z,6.10
2023-05-21T03:08:29.643Z,5.50
2023-05-21T03:10:58.165Z,5.30
2023-05-21T03:13:26.501Z,4.70
2023-05-21T03:15:56.420Z,4.60
2023-05-21T03:18:24.835Z,3.60
2023-05-21T03:20:54.211Z,4.20
2023-05-21T03:23:22.604Z,4.00
2023-05-21T03:25:51.490Z,4.00
2023-05-21T03:28:20.594Z,4.40
2023-05-21T03:30:51.238Z,3.80
2023-05-21T03:33:39.677Z,3.60
2023-05-21T03:36:18.789Z,3.50
2023-05-21T03:38:47.185Z,4.00
2023-05-21T03:41:15.821Z,3.60
2023-05-21T03:43:46.201Z,4.40
2023-05-21T03:46:14.797Z,4.00
2023-05-21T03:49:07.127Z,4.00
2023-05-21T03:51:38.476Z,3.60
2023-05-21T03:54:06.970Z,3.90
2023-05-21T03:56:39.255Z,3.60
2023-05-21T03:59:07.540Z,3.70
2023-05-21T04:01:36.946Z,4.20
2023-05-21T04:04:06.161Z,3.90
2023-05-21T04:06:34.821Z,3.60
2023-05-21T04:09:02.983Z,3.30
2023-05-21T04:11:31.707Z,3.30
2023-05-21T04:13:59.987Z,3.60
2023-05-21T04:16:28.644Z,3.10
2023-05-21T04:18:57.153Z,3.40
2023-05-21T04:21:27.484Z,3.10
2023-05-21T04:23:57.817Z,3.20
2023-05-21T04:26:35.553Z,3.00
2023-05-21T04:29:05.229Z,3.40
2023-05-21T04:31:34.496Z,3.70
2023-05-21T04:34:03.765Z,3.10
2023-05-21T04:36:34.068Z,2.80
2023-05-21T04:39:02.768Z,3.00
2023-05-21T04:41:31.860Z,4.50
2023-05-21T04:44:01.256Z,3.00
2023-05-21T04:46:31.504Z,7.40
2023-05-21T04:49:06.150Z,3.60
2023-05-21T04:51:34.609Z,3.10
2023-05-21T04:54:04.184Z,3.40
2023-05-21T04:56:32.500Z,3.20
2023-05-21T04:59:05.641Z,3.10
2023-05-21T05:01:35.552Z,3.10
2023-05-21T05:04:04.677Z,3.30
2023-05-21T05:06:33.214Z,2.90
2023-05-21T05:09:01.587Z,2.70
2023-05-21T05:11:30.177Z,3.50
2023-05-21T05:13:59.406Z,3.50
2023-05-21T05:16:29.769Z,3.30
2023-05-21T05:18:58.569Z,2.80
2023-05-21T05:21:28.316Z,2.90
2023-05-21T05:23:57.476Z,2.70
2023-05-21T05:26:28.703Z,2.50
2023-05-21T05:28:57.670Z,2.40
2023-05-21T05:31:26.447Z,3.30
2023-05-21T05:33:55.571Z,2.80
2023-05-21T05:36:25.379Z,3.10
2023-05-21T05:38:53.867Z,2.80
2023-05-21T05:41:23.280Z,2.60
2023-05-21T05:43:51.863Z,2.70
2023-05-21T05:46:22.292Z,2.60
2023-05-21T05:48:52.423Z,2.90
2023-05-21T05:51:20.966Z,3.20
2023-05-21T05:53:49.399Z,3.80
2023-05-21T05:56:17.703Z,2.50
2023-05-21T05:58:46.273Z,3.30
2023-05-21T06:01:16.702Z,2.80
2023-05-21T06:03:45.390Z,3.40
2023-05-21T06:06:17.268Z,3.00
2023-05-21T06:08:46.554Z,3.00
2023-05-21T06:11:17.337Z,3.20
2023-05-21T06:13:46.327Z,2.80
2023-05-21T06:16:16.292Z,3.50
2023-05-21T06:18:44.839Z,3.20
2023-05-21T06:21:13.389Z,3.20
2023-05-21T06:23:42.718Z,2.30
2023-05-21T06:26:11.627Z,2.30
2023-05-21T06:28:40.117Z,2.50
2023-05-21T06:31:09.996Z,2.50
2023-05-21T06:33:39.626Z,3.40
2023-05-21T06:36:08.706Z,2.70
2023-05-21T06:38:37.026Z,2.90
2023-05-21T06:41:05.478Z,2.50
2023-05-21T06:43:52.722Z,2.80
2023-05-21T06:46:53.559Z,3.80
2023-05-21T06:49:22.151Z,3.50
2023-05-21T06:51:50.826Z,2.70
2023-05-21T06:54:19.290Z,3.00
2023-05-21T06:56:47.773Z,1.90
2023-05-21T06:59:18.839Z,2.40
2023-05-21T07:01:47.283Z,2.50
2023-05-21T07:04:16.008Z,2.70
2023-05-21T07:06:44.992Z,1.90
2023-05-21T07:09:13.381Z,2.00
2023-05-21T07:11:42.219Z,2.50
2023-05-21T07:14:11.575Z,2.40
2023-05-21T07:16:40.010Z,2.90
2023-05-21T07:19:09.397Z,2.40
2023-05-21T07:21:37.853Z,2.90
2023-05-21T07:24:07.977Z,2.60
2023-05-21T07:26:39.434Z,2.30
2023-05-21T07:29:08.466Z,2.50
2023-05-21T07:31:37.306Z,2.80
2023-05-21T07:34:05.919Z,2.90
2023-05-21T07:36:34.621Z,2.90
2023-05-21T07:39:03.915Z,2.60
2023-05-21T07:41:33.201Z,2.60
2023-05-21T07:44:02.526Z,3.00
2023-05-21T07:46:33.174Z,2.80
2023-05-21T07:49:02.172Z,2.70
2023-05-21T07:51:34.067Z,2.40
2023-05-21T07:54:02.483Z,2.60
2023-05-21T07:56:34.381Z,2.50
2023-05-21T07:59:02.973Z,2.30
2023-05-21T08:01:37.707Z,2.30
2023-05-21T08:04:07.106Z,2.40
2023-05-21T08:06:37.844Z,2.70
2023-05-21T08:09:07.152Z,2.30
2023-05-21T08:11:36.246Z,2.80
2023-05-21T08:14:04.848Z,3.00
2023-05-21T08:16:33.560Z,2.90
2023-05-21T08:19:02.836Z,2.40
2023-05-21T08:21:33.064Z,3.10
2023-05-21T08:24:03.224Z,2.60
2023-05-21T08:26:31.779Z,2.30
2023-05-21T08:29:00.190Z,2.60
2023-05-21T08:31:28.924Z,2.70
2023-05-21T08:33:57.562Z,2.60
2023-05-21T08:36:38.424Z,2.90
2023-05-21T08:39:17.745Z,2.30
2023-05-21T08:41:50.126Z,2.50
2023-05-21T08:44:25.155Z,2.60
2023-05-21T08:46:55.165Z,2.60
2023-05-21T08:49:27.570Z,2.70
2023-05-21T08:51:58.933Z,3.20
2023-05-21T08:54:28.197Z,3.10
2023-05-21T08:56:58.531Z,2.90
2023-05-21T08:59:29.724Z,3.30
2023-05-21T09:02:00.313Z,3.10
2023-05-21T09:04:36.480Z,6.50
2023-05-21T09:07:05.709Z,3.10
2023-05-21T09:10:10.076Z,2.90
2023-05-21T09:12:38.382Z,3.20
2023-05-21T09:15:07.969Z,2.90
2023-05-21T09:17:39.922Z,2.70
2023-05-21T09:20:29.876Z,3.60
2023-05-21T09:23:06.918Z,4.20
2023-05-21T09:28:15.605Z,2.60
2023-05-21T09:30:54.387Z,3.00
2023-05-21T09:33:27.622Z,3.00
2023-05-21T09:35:56.880Z,3.30
2023-05-21T09:38:27.200Z,3.00
2023-05-21T09:40:57.395Z,3.00
2023-05-21T09:43:26.248Z,3.40
2023-05-21T09:45:58.970Z,2.60
2023-05-21T09:48:41.068Z,3.10
2023-05-21T09:51:20.724Z,3.40
2023-05-21T09:53:51.923Z,2.90
2023-05-21T09:56:32.028Z,3.50
2023-05-21T09:59:06.987Z,3.20
2023-05-21T10:01:36.253Z,2.70
2023-05-21T10:04:08.462Z,3.10
2023-05-21T10:06:48.137Z,3.40
2023-05-21T10:09:19.575Z,3.50
2023-05-21T10:11:51.928Z,3.10
2023-05-21T10:14:22.738Z,3.10
2023-05-21T10:16:54.335Z,2.80
2023-05-21T10:19:25.017Z,3.00
2023-05-21T10:21:54.689Z,3.20
2023-05-21T10:24:24.853Z,3.50
2023-05-21T10:26:53.834Z,3.80
2023-05-21T10:29:23.524Z,2.50
2023-05-21T10:31:52.969Z,2.60
2023-05-21T10:34:23.839Z,3.10
2023-05-21T10:36:55.047Z,3.20
2023-05-21T10:39:25.826Z,2.90
2023-05-21T10:42:23.551Z,2.70
2023-05-21T10:45:08.488Z,4.40
2023-05-21T10:48:02.094Z,2.80
2023-05-21T10:50:49.993Z,2.70
2023-05-21T10:53:43.007Z,3.50
2023-05-21T10:56:17.018Z,2.70
2023-05-21T10:59:04.444Z,3.30
2023-05-21T11:01:36.820Z,2.50
2023-05-21T11:04:06.446Z,2.80
2023-05-21T11:06:34.720Z,3.50
2023-05-21T11:09:13.784Z,2.20
2023-05-21T11:11:43.101Z,3.00
2023-05-21T11:14:31.995Z,3.00
2023-05-21T11:17:01.499Z,3.40
2023-05-21T11:19:36.410Z,3.00
2023-05-21T11:22:24.090Z,2.40
2023-05-21T11:24:56.895Z,3.10
2023-05-21T11:30:15.103Z,2.40
2023-05-21T11:33:14.204Z,2.20
2023-05-21T11:35:45.439Z,2.70
2023-05-21T11:38:13.828Z,2.00
2023-05-21T11:41:05.862Z,2.70
2023-05-21T11:43:36.497Z,2.50
2023-05-21T11:46:09.995Z,1.90
2023-05-21T11:48:39.505Z,2.30
2023-05-21T11:51:07.997Z,1.60
2023-05-21T11:53:39.544Z,2.10
2023-05-21T11:56:09.997Z,1.60
2023-05-21T11:58:42.963Z,1.70
2023-05-21T12:01:22.542Z,1.80
2023-05-21T12:03:51.221Z,2.10
2023-05-21T12:06:26.577Z,2.20
2023-05-21T12:08:58.506Z,2.00
2023-05-21T12:11:27.706Z,1.90
2023-05-21T12:13:56.776Z,1.80
2023-05-21T12:16:25.557Z,1.90
2023-05-21T12:18:55.021Z,2.30
2023-05-21T12:21:23.389Z,1.70
2023-05-21T12:23:52.026Z,2.30
2023-05-21T12:26:21.950Z,1.90
2023-05-21T12:28:50.808Z,1.60
2023-05-21T12:31:19.923Z,2.50
2023-05-21T12:33:50.214Z,3.00
2023-05-21T12:36:34.377Z,1.90
2023-05-21T12:39:02.655Z,1.90
2023-05-21T12:41:30.871Z,1.70
2023-05-21T12:43:59.628Z,1.70
2023-05-21T12:46:28.494Z,1.70
2023-05-21T12:48:57.019Z,1.80
2023-05-21T12:51:25.605Z,1.70
2023-05-21T12:53:53.772Z,1.80
2023-05-21T12:56:22.700Z,2.40
2023-05-21T12:58:51.402Z,1.70
2023-05-21T13:01:21.953Z,2.60
2023-05-21T13:03:51.359Z,1.90
2023-05-21T13:06:19.697Z,1.70
2023-05-21T13:08:48.081Z,1.90
2023-05-21T13:11:16.360Z,1.80
2023-05-21T13:13:44.584Z,2.20
2023-05-21T13:16:12.801Z,1.50
2023-05-21T13:18:41.406Z,2.00
2023-05-21T13:21:10.001Z,1.80
2023-05-21T13:23:38.632Z,1.80
2023-05-21T13:26:07.690Z,1.40
2023-05-21T13:28:37.172Z,1.60
2023-05-21T13:31:05.890Z,1.90
2023-05-21T13:33:34.518Z,1.90
2023-05-21T13:36:02.982Z,1.60
2023-05-21T13:38:31.251Z,1.50
2023-05-21T13:40:59.761Z,2.00
2023-05-21T13:43:28.535Z,1.70
2023-05-21T13:45:57.166Z,1.30
2023-05-21T13:48:25.701Z,1.30
2023-05-21T13:50:56.872Z,1.40
2023-05-21T13:53:25.346Z,1.50
2023-05-21T13:55:53.632Z,1.40
2023-05-21T13:58:21.731Z,1.40
2023-05-21T14:00:50.329Z,1.60
2023-05-21T14:03:18.783Z,1.40
2023-05-21T14:05:48.577Z,1.60
2023-05-21T14:08:20.165Z,1.60
2023-05-21T14:10:48.328Z,1.80
2023-05-21T14:13:20.102Z,2.00
2023-05-21T14:15:48.743Z,1.70
2023-05-21T14:18:17.060Z,1.60
2023-05-21T14:20:45.309Z,1.90
2023-05-21T14:23:13.772Z,1.60
2023-05-21T14:25:43.015Z,1.90
2023-05-21T14:28:11.740Z,1.70
2023-05-21T14:30:40.317Z,1.60
2023-05-21T14:33:08.717Z,1.50
2023-05-21T14:35:37.536Z,1.90
2023-05-21T14:38:05.966Z,1.50
2023-05-21T14:40:34.164Z,1.60
2023-05-21T14:43:02.839Z,2.30
2023-05-21T14:45:33.397Z,1.80
2023-05-21T14:48:08.676Z,2.50
2023-05-21T14:50:41.301Z,4.20
2023-05-21T14:53:11.764Z,2.80
2023-05-21T14:55:40.047Z,2.50
2023-05-21T14:58:08.830Z,1.90
2023-05-21T15:00:38.160Z,2.50
2023-05-21T15:03:07.228Z,2.50
2023-05-21T15:05:36.248Z,2.30
2023-05-21T15:08:06.166Z,2.40
2023-05-21T15:10:34.337Z,2.50
2023-05-21T15:13:02.805Z,1.60
2023-05-21T15:15:31.184Z,2.00
2023-05-21T15:17:59.393Z,2.60
2023-05-21T15:20:27.905Z,2.40
2023-05-21T15:23:15.374Z,2.50
2023-05-21T15:25:46.065Z,1.50
2023-05-21T15:28:14.622Z,2.30
2023-05-21T15:30:43.292Z,1.30
2023-05-21T15:33:11.795Z,2.20
2023-05-21T15:35:41.223Z,1.90
2023-05-21T15:38:09.733Z,1.40
2023-05-21T15:40:41.479Z,1.30
2023-05-21T15:43:10.044Z,1.30
2023-05-21T15:45:38.875Z,2.50
2023-05-21T15:48:08.062Z,1.40
2023-05-21T15:50:36.518Z,1.40
2023-05-21T15:53:05.316Z,1.90
2023-05-21T15:55:34.047Z,1.70
2023-05-21T15:58:03.832Z,1.80
2023-05-21T16:00:32.304Z,1.30
2023-05-21T16:03:00.753Z,1.60
2023-05-21T16:05:29.577Z,2.30
2023-05-21T16:07:57.777Z,1.90
2023-05-21T16:10:26.048Z,2.20
2023-05-21T16:12:54.256Z,2.90
2023-05-21T16:15:22.985Z,2.50
2023-05-21T16:17:51.302Z,2.50
2023-05-21T16:20:22.216Z,2.60
2023-05-21T16:22:51.447Z,2.00
2023-05-21T16:25:20.326Z,2.30
2023-05-21T16:27:49.341Z,2.40
2023-05-21T16:30:17.936Z,1.90
2023-05-21T16:32:46.147Z,3.10
2023-05-21T16:35:14.598Z,3.10
2023-05-21T16:37:42.990Z,2.50
2023-05-21T16:40:12.378Z,2.80
2023-05-21T16:42:40.641Z,3.70
2023-05-21T16:45:09.536Z,2.30
2023-05-21T16:47:37.776Z,2.40
2023-05-21T16:50:06.898Z,2.50
2023-05-21T16:52:35.134Z,3.20
2023-05-21T16:55:03.659Z,2.10
2023-05-21T16:57:32.101Z,2.70
2023-05-21T17:00:02.051Z,3.30
2023-05-21T17:02:31.471Z,3.30
2023-05-21T17:04:59.823Z,1.80
2023-05-21T17:07:27.995Z,3.60
2023-05-21T17:09:56.379Z,2.90
2023-05-21T17:12:29.266Z,4.10
2023-05-21T17:15:01.337Z,3.10
2023-05-21T17:17:30.410Z,2.30
2023-05-21T17:19:59.238Z,3.20
2023-05-21T17:22:28.127Z,3.40
2023-05-21T17:24:56.541Z,2.70
2023-05-21T17:27:25.469Z,3.90
2023-05-21T17:29:53.675Z,3.30
2023-05-21T17:32:21.882Z,3.60
2023-05-21T17:34:50.154Z,2.10
2023-05-21T17:37:18.638Z,1.80
2023-05-21T17:39:47.152Z,3.10
2023-05-21T17:42:17.228Z,3.50
2023-05-21T17:44:45.559Z,3.10
2023-05-21T17:47:14.459Z,2.60
2023-05-21T17:49:45.485Z,3.40
2023-05-21T17:52:14.105Z,3.20
2023-05-21T17:54:42.654Z,2.50
2023-05-21T17:57:10.940Z,2.60
2023-05-21T17:59:41.501Z,3.10
2023-05-21T18:02:09.851Z,3.00
2023-05-21T18:04:38.595Z,3.20
2023-05-21T18:07:10.044Z,3.20
2023-05-21T18:09:38.390Z,2.90
2023-05-21T18:12:07.638Z,2.90
2023-05-21T18:14:36.144Z,2.30
2023-05-21T18:17:07.228Z,1.70
2023-05-21T18:19:35.822Z,1.30
2023-05-21T18:22:05.625Z,2.20
2023-05-21T18:24:34.334Z,1.60
2023-05-21T18:27:02.814Z,1.90
2023-05-21T18:29:31.322Z,2.00
2023-05-21T18:32:00.060Z,1.90
2023-05-21T18:34:28.467Z,2.00
2023-05-21T18:36:58.925Z,2.30
2023-05-21T18:39:28.317Z,2.00
2023-05-21T18:44:27.951Z,1.80
2023-05-21T18:46:58.027Z,1.70
2023-05-21T18:49:26.766Z,2.20
2023-05-21T18:51:55.253Z,1.90
2023-05-21T18:54:23.719Z,1.60
2023-05-21T18:56:52.328Z,1.80
2023-05-21T18:59:20.525Z,2.50
2023-05-21T19:01:48.706Z,2.40
2023-05-21T19:04:19.417Z,2.00
2023-05-21T19:06:47.801Z,1.80
2023-05-21T19:09:18.354Z,1.80
2023-05-21T19:11:47.239Z,2.30
2023-05-21T19:14:15.761Z,2.00
2023-05-21T19:16:43.917Z,1.80
2023-05-21T19:19:12.593Z,2.40
2023-05-21T19:21:41.048Z,2.60
2023-05-21T19:24:10.395Z,2.10
2023-05-21T19:26:39.255Z,2.50
2023-05-21T19:29:09.820Z,2.90
2023-05-21T19:31:39.221Z,1.80
2023-05-21T19:34:11.026Z,2.40
2023-05-21T19:36:52.434Z,3.90
2023-05-21T19:39:25.059Z,6.90
2023-05-21T19:41:53.819Z,2.30
2023-05-21T19:44:21.977Z,2.10
2023-05-21T19:46:51.647Z,2.90
2023-05-21T19:49:20.132Z,1.90
2023-05-21T19:51:49.669Z,2.10
2023-05-21T19:54:18.861Z,2.00
2023-05-21T19:56:47.539Z,2.00
2023-05-21T19:59:16.026Z,1.90
2023-05-21T20:01:45.156Z,1.80
2023-05-21T20:04:14.029Z,1.80
2023-05-21T20:06:42.539Z,1.90
2023-05-21T20:09:13.440Z,2.00
2023-05-21T20:11:42.553Z,1.70
2023-05-21T20:14:11.234Z,2.10
2023-05-21T20:16:39.760Z,2.10
2023-05-21T20:19:10.876Z,2.90
2023-05-21T20:21:39.788Z,2.10
2023-05-21T20:24:09.068Z,2.30
2023-05-21T20:26:37.462Z,1.90
2023-05-21T20:29:08.109Z,2.30
2023-05-21T20:31:37.141Z,2.00
2023-05-21T20:34:07.851Z,2.90
2023-05-21T20:36:37.132Z,2.60
2023-05-21T20:39:06.476Z,2.30
2023-05-21T20:41:37.918Z,3.20
2023-05-21T20:44:06.890Z,2.50
2023-05-21T20:46:38.971Z,2.70
2023-05-21T20:49:07.951Z,2.50
2023-05-21T20:51:36.349Z,2.20
2023-05-21T20:54:04.818Z,2.80
2023-05-21T20:56:42.100Z,2.20
2023-05-21T20:59:12.262Z,2.80
2023-05-21T21:01:41.499Z,2.50
2023-05-21T21:04:10.243Z,2.00
2023-05-21T21:06:40.566Z,1.90
2023-05-21T21:09:08.948Z,2.20
2023-05-21T21:11:37.533Z,2.20
2023-05-21T21:14:06.046Z,2.20
2023-05-21T21:16:34.546Z,3.30
2023-05-21T21:19:03.311Z,2.70
2023-05-21T21:21:32.012Z,2.40
2023-05-21T21:24:00.824Z,2.30
2023-05-21T21:26:29.273Z,2.50
2023-05-21T21:28:59.190Z,2.80
2023-05-21T21:31:27.987Z,2.30
2023-05-21T21:33:56.419Z,2.10
2023-05-21T21:36:25.062Z,2.50
2023-05-21T21:38:53.192Z,2.30
2023-05-21T21:41:22.047Z,2.10
2023-05-21T21:43:51.746Z,3.10
2023-05-21T21:46:20.156Z,2.60
2023-05-21T21:48:49.441Z,2.90
2023-05-21T21:51:17.926Z,2.50
2023-05-21T21:53:46.315Z,2.50
2023-05-21T21:56:14.704Z,3.30
2023-05-21T21:58:43.280Z,2.30
2023-05-21T22:01:11.702Z,2.40
2023-05-21T22:03:40.112Z,2.70
2023-05-21T22:06:08.548Z,2.60
2023-05-21T22:08:36.828Z,2.40
2023-05-21T22:11:05.170Z,2.70
2023-05-21T22:13:34.557Z,3.50
2023-05-21T22:16:03.213Z,2.80
2023-05-21T22:18:39.654Z,2.90
2023-05-21T22:21:10.652Z,3.70
2023-05-21T22:23:40.044Z,3.40
2023-05-21T22:26:09.619Z,5.40
2023-05-21T22:28:38.229Z,4.00
2023-05-21T22:31:07.315Z,3.50
2023-05-21T22:33:36.943Z,3.00
2023-05-21T22:36:05.987Z,3.00
2023-05-21T22:38:34.226Z,3.40
2023-05-21T22:41:02.435Z,4.00
2023-05-21T22:43:31.309Z,4.00
2023-05-21T22:45:59.823Z,4.60
2023-05-21T22:48:31.047Z,4.60
2023-05-21T22:51:01.822Z,4.30
2023-05-21T22:53:32.210Z,4.00
2023-05-21T22:56:01.174Z,4.50
2023-05-21T22:58:29.421Z,4.50
2023-05-21T23:00:58.295Z,5.50
2023-05-21T23:03:27.079Z,4.40
2023-05-21T23:05:55.252Z,4.50
2023-05-21T23:08:23.570Z,4.30
2023-05-21T23:10:52.028Z,4.90
2023-05-21T23:13:20.648Z,4.10
2023-05-21T23:15:48.886Z,3.20
2023-05-21T23:18:19.542Z,2.90
2023-05-21T23:20:48.082Z,3.30
2023-05-21T23:23:16.637Z,3.60
2023-05-21T23:25:45.721Z,4.50
2023-05-21T23:28:14.297Z,3.60
2023-05-21T23:30:42.958Z,3.90
2023-05-21T23:33:11.536Z,3.20
2023-05-21T23:35:39.969Z,3.60
2023-05-21T23:38:08.180Z,3.90
2023-05-21T23:40:37.555Z,3.10
2023-05-21T23:43:06.271Z,4.00
2023-05-21T23:45:34.719Z,4.20
2023-05-21T23:48:05.790Z,4.00
2023-05-21T23:50:34.162Z,3.90
2023-05-21T23:53:02.571Z,3.70
2023-05-21T23:55:30.928Z,3.60
2023-05-21T23:57:59.014Z,2.70
